sensor_id;sensor_type;location;lat;lon;timestamp;P1;durP1;ratioP1;P2;durP2;ratioP2
55063;SDS011;40963;52.168;21.296;2023-06-22T00:00:51;38.22;;;28.17;;
55063;SDS011;40963;52.168;21.296;2023-06-22T00:03:18;36.53;;;27.60;;
55063;SDS011;40963;52.168;21.296;2023-06-22T00:05:45;37.60;;;28.30;;
55063;SDS011;40963;52.168;21.296;2023-06-22T00:08:11;39.10;;;28.17;;
55063;SDS011;40963;52.168;21.296;2023-06-22T00:10:37;41.20;;;29.17;;
55063;SDS011;40963;52.168;21.296;2023-06-22T00:13:04;39.13;;;28.15;;
55063;SDS011;40963;52.168;21.296;2023-06-22T00:15:30;42.83;;;28.63;;
55063;SDS011;40963;52.168;21.296;2023-06-22T00:17:56;37.88;;;27.77;;
55063;SDS011;40963;52.168;21.296;2023-06-22T00:20:22;37.85;;;28.08;;
55063;SDS011;40963;52.168;21.296;2023-06-22T00:22:52;37.30;;;28.20;;
55063;SDS011;40963;52.168;21.296;2023-06-22T00:25:19;37.65;;;28.13;;
55063;SDS011;40963;52.168;21.296;2023-06-22T00:27:44;39.97;;;28.25;;
55063;SDS011;40963;52.168;21.296;2023-06-22T00:30:10;39.70;;;29.08;;
55063;SDS011;40963;52.168;21.296;2023-06-22T00:32:36;42.03;;;29.30;;
55063;SDS011;40963;52.168;21.296;2023-06-22T00:35:02;41.33;;;28.10;;
55063;SDS011;40963;52.168;21.296;2023-06-22T00:37:27;43.55;;;28.27;;
55063;SDS011;40963;52.168;21.296;2023-06-22T00:39:55;38.00;;;28.65;;
55063;SDS011;40963;52.168;21.296;2023-06-22T00:42:21;37.33;;;28.58;;
55063;SDS011;40963;52.168;21.296;2023-06-22T00:44:47;39.42;;;29.58;;
55063;SDS011;40963;52.168;21.296;2023-06-22T00:47:13;40.67;;;28.52;;
55063;SDS011;40963;52.168;21.296;2023-06-22T00:49:42;42.63;;;29.75;;
55063;SDS011;40963;52.168;21.296;2023-06-22T00:52:08;41.22;;;28.75;;
55063;SDS011;40963;52.168;21.296;2023-06-22T00:54:42;38.03;;;28.70;;
55063;SDS011;40963;52.168;21.296;2023-06-22T00:57:10;39.35;;;28.88;;
55063;SDS011;40963;52.168;21.296;2023-06-22T00:59:40;38.15;;;29.25;;
55063;SDS011;40963;52.168;21.296;2023-06-22T01:02:10;41.05;;;29.48;;
55063;SDS011;40963;52.168;21.296;2023-06-22T01:04:37;42.63;;;28.58;;
55063;SDS011;40963;52.168;21.296;2023-06-22T01:07:09;40.50;;;28.75;;
55063;SDS011;40963;52.168;21.296;2023-06-22T01:09:57;41.47;;;29.38;;
55063;SDS011;40963;52.168;21.296;2023-06-22T01:12:40;42.75;;;29.10;;
55063;SDS011;40963;52.168;21.296;2023-06-22T01:15:20;41.95;;;27.77;;
55063;SDS011;40963;52.168;21.296;2023-06-22T01:17:53;38.45;;;27.95;;
55063;SDS011;40963;52.168;21.296;2023-06-22T01:20:21;39.88;;;29.05;;
55063;SDS011;40963;52.168;21.296;2023-06-22T01:22:57;39.78;;;28.50;;
55063;SDS011;40963;52.168;21.296;2023-06-22T01:25:34;40.10;;;28.75;;
55063;SDS011;40963;52.168;21.296;2023-06-22T01:28:17;37.83;;;28.33;;
55063;SDS011;40963;52.168;21.296;2023-06-22T01:30:45;41.08;;;28.88;;
55063;SDS011;40963;52.168;21.296;2023-06-22T01:33:11;41.63;;;29.90;;
55063;SDS011;40963;52.168;21.296;2023-06-22T01:35:39;40.25;;;29.23;;
55063;SDS011;40963;52.168;21.296;2023-06-22T01:38:05;37.75;;;28.08;;
55063;SDS011;40963;52.168;21.296;2023-06-22T01:40:33;41.08;;;30.08;;
55063;SDS011;40963;52.168;21.296;2023-06-22T01:43:00;37.45;;;27.85;;
55063;SDS011;40963;52.168;21.296;2023-06-22T01:45:27;39.05;;;28.77;;
55063;SDS011;40963;52.168;21.296;2023-06-22T01:47:53;44.42;;;28.95;;
55063;SDS011;40963;52.168;21.296;2023-06-22T01:50:20;38.10;;;28.35;;
55063;SDS011;40963;52.168;21.296;2023-06-22T01:52:46;37.90;;;29.20;;
55063;SDS011;40963;52.168;21.296;2023-06-22T01:55:12;40.55;;;27.88;;
55063;SDS011;40963;52.168;21.296;2023-06-22T01:57:38;40.03;;;29.02;;
55063;SDS011;40963;52.168;21.296;2023-06-22T02:00:05;39.03;;;28.70;;
55063;SDS011;40963;52.168;21.296;2023-06-22T02:02:36;41.42;;;29.05;;
55063;SDS011;40963;52.168;21.296;2023-06-22T02:05:08;38.88;;;29.42;;
55063;SDS011;40963;52.168;21.296;2023-06-22T02:07:49;44.33;;;29.58;;
55063;SDS011;40963;52.168;21.296;2023-06-22T02:10:21;44.92;;;29.73;;
55063;SDS011;40963;52.168;21.296;2023-06-22T02:12:49;45.70;;;29.55;;
55063;SDS011;40963;52.168;21.296;2023-06-22T02:15:16;41.88;;;29.60;;
55063;SDS011;40963;52.168;21.296;2023-06-22T02:17:42;42.08;;;29.67;;
55063;SDS011;40963;52.168;21.296;2023-06-22T02:20:14;42.75;;;29.85;;
55063;SDS011;40963;52.168;21.296;2023-06-22T02:22:40;45.67;;;33.05;;
55063;SDS011;40963;52.168;21.296;2023-06-22T02:25:06;43.13;;;30.75;;
55063;SDS011;40963;52.168;21.296;2023-06-22T02:27:32;42.35;;;31.27;;
55063;SDS011;40963;52.168;21.296;2023-06-22T02:29:57;43.53;;;31.70;;
55063;SDS011;40963;52.168;21.296;2023-06-22T02:32:23;42.92;;;31.73;;
55063;SDS011;40963;52.168;21.296;2023-06-22T02:34:49;43.80;;;31.77;;
55063;SDS011;40963;52.168;21.296;2023-06-22T02:37:14;45.58;;;32.85;;
55063;SDS011;40963;52.168;21.296;2023-06-22T02:39:40;47.60;;;33.45;;
55063;SDS011;40963;52.168;21.296;2023-06-22T02:42:06;45.97;;;31.63;;
55063;SDS011;40963;52.168;21.296;2023-06-22T02:44:32;46.53;;;33.63;;
55063;SDS011;40963;52.168;21.296;2023-06-22T02:46:57;54.42;;;34.42;;
55063;SDS011;40963;52.168;21.296;2023-06-22T02:49:23;47.90;;;33.13;;
55063;SDS011;40963;52.168;21.296;2023-06-22T02:51:49;44.05;;;33.35;;
55063;SDS011;40963;52.168;21.296;2023-06-22T02:54:15;49.97;;;33.45;;
55063;SDS011;40963;52.168;21.296;2023-06-22T02:56:41;47.45;;;33.28;;
55063;SDS011;40963;52.168;21.296;2023-06-22T02:59:09;46.63;;;33.97;;
55063;SDS011;40963;52.168;21.296;2023-06-22T03:01:35;50.97;;;33.50;;
55063;SDS011;40963;52.168;21.296;2023-06-22T03:04:07;51.22;;;33.40;;
55063;SDS011;40963;52.168;21.296;2023-06-22T03:06:34;46.95;;;33.38;;
55063;SDS011;40963;52.168;21.296;2023-06-22T03:09:01;41.97;;;32.22;;
55063;SDS011;40963;52.168;21.296;2023-06-22T03:11:31;47.72;;;33.60;;
55063;SDS011;40963;52.168;21.296;2023-06-22T03:13:58;45.20;;;31.63;;
55063;SDS011;40963;52.168;21.296;2023-06-22T03:16:24;47.50;;;32.25;;
55063;SDS011;40963;52.168;21.296;2023-06-22T03:18:50;48.60;;;32.55;;
55063;SDS011;40963;52.168;21.296;2023-06-22T03:21:16;45.28;;;31.23;;
55063;SDS011;40963;52.168;21.296;2023-06-22T03:23:42;44.70;;;30.95;;
55063;SDS011;40963;52.168;21.296;2023-06-22T03:26:08;43.47;;;30.63;;
55063;SDS011;40963;52.168;21.296;2023-06-22T03:28:34;43.45;;;29.98;;
55063;SDS011;40963;52.168;21.296;2023-06-22T03:31:00;45.47;;;31.23;;
55063;SDS011;40963;52.168;21.296;2023-06-22T03:33:25;50.92;;;31.15;;
55063;SDS011;40963;52.168;21.296;2023-06-22T03:35:51;48.28;;;29.80;;
55063;SDS011;40963;52.168;21.296;2023-06-22T03:38:17;43.28;;;30.38;;
55063;SDS011;40963;52.168;21.296;2023-06-22T03:40:43;38.78;;;29.40;;
55063;SDS011;40963;52.168;21.296;2023-06-22T03:43:08;47.65;;;30.60;;
55063;SDS011;40963;52.168;21.296;2023-06-22T03:45:34;40.55;;;29.38;;
55063;SDS011;40963;52.168;21.296;2023-06-22T03:48:00;45.45;;;30.23;;
55063;SDS011;40963;52.168;21.296;2023-06-22T03:50:26;44.60;;;31.60;;
55063;SDS011;40963;52.168;21.296;2023-06-22T03:52:52;42.38;;;30.00;;
55063;SDS011;40963;52.168;21.296;2023-06-22T03:55:19;44.15;;;30.80;;
55063;SDS011;40963;52.168;21.296;2023-06-22T03:57:45;43.28;;;29.70;;
55063;SDS011;40963;52.168;21.296;2023-06-22T04:00:11;45.78;;;31.73;;
55063;SDS011;40963;52.168;21.296;2023-06-22T04:02:37;46.95;;;30.42;;
55063;SDS011;40963;52.168;21.296;2023-06-22T04:05:02;46.58;;;31.70;;
55063;SDS011;40963;52.168;21.296;2023-06-22T04:07:28;41.47;;;30.65;;
55063;SDS011;40963;52.168;21.296;2023-06-22T04:09:54;44.50;;;32.15;;
55063;SDS011;40963;52.168;21.296;2023-06-22T04:12:19;51.70;;;32.53;;
55063;SDS011;40963;52.168;21.296;2023-06-22T04:14:45;43.83;;;31.20;;
55063;SDS011;40963;52.168;21.296;2023-06-22T04:17:11;44.40;;;31.50;;
55063;SDS011;40963;52.168;21.296;2023-06-22T04:19:39;43.65;;;31.30;;
55063;SDS011;40963;52.168;21.296;2023-06-22T04:22:05;48.75;;;32.13;;
55063;SDS011;40963;52.168;21.296;2023-06-22T04:24:32;48.90;;;31.77;;
55063;SDS011;40963;52.168;21.296;2023-06-22T04:26:58;51.00;;;33.53;;
55063;SDS011;40963;52.168;21.296;2023-06-22T04:29:29;44.40;;;32.17;;
55063;SDS011;40963;52.168;21.296;2023-06-22T04:31:56;46.97;;;32.33;;
55063;SDS011;40963;52.168;21.296;2023-06-22T04:34:23;49.97;;;32.63;;
55063;SDS011;40963;52.168;21.296;2023-06-22T04:36:52;47.83;;;31.70;;
55063;SDS011;40963;52.168;21.296;2023-06-22T04:39:18;50.25;;;34.17;;
55063;SDS011;40963;52.168;21.296;2023-06-22T04:41:44;52.50;;;33.22;;
55063;SDS011;40963;52.168;21.296;2023-06-22T04:44:11;45.72;;;31.88;;
55063;SDS011;40963;52.168;21.296;2023-06-22T04:46:37;45.90;;;31.52;;
55063;SDS011;40963;52.168;21.296;2023-06-22T04:49:07;44.72;;;29.80;;
55063;SDS011;40963;52.168;21.296;2023-06-22T04:51:39;47.10;;;31.10;;
55063;SDS011;40963;52.168;21.296;2023-06-22T04:54:05;46.15;;;30.77;;
55063;SDS011;40963;52.168;21.296;2023-06-22T04:56:32;44.53;;;30.45;;
55063;SDS011;40963;52.168;21.296;2023-06-22T04:58:58;44.00;;;28.77;;
55063;SDS011;40963;52.168;21.296;2023-06-22T05:01:24;43.15;;;30.02;;
55063;SDS011;40963;52.168;21.296;2023-06-22T05:03:50;47.47;;;29.42;;
55063;SDS011;40963;52.168;21.296;2023-06-22T05:06:21;48.28;;;29.38;;
55063;SDS011;40963;52.168;21.296;2023-06-22T05:08:49;40.33;;;28.48;;
55063;SDS011;40963;52.168;21.296;2023-06-22T05:11:27;44.05;;;29.48;;
55063;SDS011;40963;52.168;21.296;2023-06-22T05:13:53;39.95;;;27.60;;
55063;SDS011;40963;52.168;21.296;2023-06-22T05:16:19;41.38;;;27.48;;
55063;SDS011;40963;52.168;21.296;2023-06-22T05:18:55;41.83;;;27.67;;
55063;SDS011;40963;52.168;21.296;2023-06-22T05:21:24;40.22;;;26.63;;
55063;SDS011;40963;52.168;21.296;2023-06-22T05:23:51;41.58;;;26.60;;
55063;SDS011;40963;52.168;21.296;2023-06-22T05:26:18;40.85;;;25.25;;
55063;SDS011;40963;52.168;21.296;2023-06-22T05:28:45;35.55;;;24.52;;
55063;SDS011;40963;52.168;21.296;2023-06-22T05:31:14;44.03;;;24.27;;
55063;SDS011;40963;52.168;21.296;2023-06-22T05:33:41;35.03;;;25.55;;
55063;SDS011;40963;52.168;21.296;2023-06-22T05:36:08;35.60;;;24.67;;
55063;SDS011;40963;52.168;21.296;2023-06-22T05:38:34;31.52;;;23.10;;
55063;SDS011;40963;52.168;21.296;2023-06-22T05:41:00;32.38;;;23.77;;
55063;SDS011;40963;52.168;21.296;2023-06-22T05:43:26;35.30;;;23.75;;
55063;SDS011;40963;52.168;21.296;2023-06-22T05:45:52;35.58;;;23.35;;
55063;SDS011;40963;52.168;21.296;2023-06-22T05:48:17;32.55;;;23.55;;
55063;SDS011;40963;52.168;21.296;2023-06-22T05:50:43;37.97;;;23.70;;
55063;SDS011;40963;52.168;21.296;2023-06-22T05:53:09;31.75;;;23.88;;
55063;SDS011;40963;52.168;21.296;2023-06-22T05:55:34;31.95;;;23.33;;
55063;SDS011;40963;52.168;21.296;2023-06-22T05:58:00;38.08;;;27.33;;
55063;SDS011;40963;52.168;21.296;2023-06-22T06:00:26;37.00;;;23.88;;
55063;SDS011;40963;52.168;21.296;2023-06-22T06:02:52;40.78;;;22.92;;
55063;SDS011;40963;52.168;21.296;2023-06-22T06:05:17;38.65;;;24.10;;
55063;SDS011;40963;52.168;21.296;2023-06-22T06:07:44;44.50;;;24.30;;
55063;SDS011;40963;52.168;21.296;2023-06-22T06:10:11;33.63;;;23.70;;
55063;SDS011;40963;52.168;21.296;2023-06-22T06:12:37;33.72;;;23.58;;
55063;SDS011;40963;52.168;21.296;2023-06-22T06:15:03;39.13;;;24.40;;
55063;SDS011;40963;52.168;21.296;2023-06-22T06:17:29;36.53;;;24.50;;
55063;SDS011;40963;52.168;21.296;2023-06-22T06:19:55;32.17;;;23.45;;
55063;SDS011;40963;52.168;21.296;2023-06-22T06:22:21;42.72;;;24.05;;
55063;SDS011;40963;52.168;21.296;2023-06-22T06:24:48;33.20;;;22.50;;
55063;SDS011;40963;52.168;21.296;2023-06-22T06:27:14;36.58;;;22.77;;
55063;SDS011;40963;52.168;21.296;2023-06-22T06:29:40;34.83;;;24.23;;
55063;SDS011;40963;52.168;21.296;2023-06-22T06:32:05;34.08;;;22.73;;
55063;SDS011;40963;52.168;21.296;2023-06-22T06:34:31;31.45;;;23.52;;
55063;SDS011;40963;52.168;21.296;2023-06-22T06:36:57;32.92;;;23.33;;
55063;SDS011;40963;52.168;21.296;2023-06-22T06:39:23;32.00;;;22.83;;
55063;SDS011;40963;52.168;21.296;2023-06-22T06:41:49;36.85;;;23.08;;
55063;SDS011;40963;52.168;21.296;2023-06-22T06:44:14;35.50;;;22.30;;
55063;SDS011;40963;52.168;21.296;2023-06-22T06:46:40;35.17;;;22.95;;
55063;SDS011;40963;52.168;21.296;2023-06-22T06:49:07;31.92;;;21.80;;
55063;SDS011;40963;52.168;21.296;2023-06-22T06:51:32;34.42;;;23.30;;
55063;SDS011;40963;52.168;21.296;2023-06-22T06:53:58;43.80;;;25.45;;
55063;SDS011;40963;52.168;21.296;2023-06-22T06:56:23;39.83;;;25.60;;
55063;SDS011;40963;52.168;21.296;2023-06-22T06:58:49;38.03;;;25.48;;
55063;SDS011;40963;52.168;21.296;2023-06-22T07:01:16;46.08;;;27.23;;
55063;SDS011;40963;52.168;21.296;2023-06-22T07:03:41;42.38;;;28.08;;
55063;SDS011;40963;52.168;21.296;2023-06-22T07:06:08;39.90;;;27.55;;
55063;SDS011;40963;52.168;21.296;2023-06-22T07:08:34;42.55;;;27.73;;
55063;SDS011;40963;52.168;21.296;2023-06-22T07:11:01;37.15;;;25.77;;
55063;SDS011;40963;52.168;21.296;2023-06-22T07:13:27;38.40;;;26.48;;
55063;SDS011;40963;52.168;21.296;2023-06-22T07:15:52;36.95;;;25.05;;
55063;SDS011;40963;52.168;21.296;2023-06-22T07:18:18;40.20;;;26.42;;
55063;SDS011;40963;52.168;21.296;2023-06-22T07:20:44;34.20;;;23.40;;
55063;SDS011;40963;52.168;21.296;2023-06-22T07:23:09;34.17;;;23.63;;
55063;SDS011;40963;52.168;21.296;2023-06-22T07:25:35;30.83;;;21.98;;
55063;SDS011;40963;52.168;21.296;2023-06-22T07:28:01;35.80;;;22.05;;
55063;SDS011;40963;52.168;21.296;2023-06-22T07:30:29;28.88;;;20.65;;
55063;SDS011;40963;52.168;21.296;2023-06-22T07:32:56;32.60;;;21.33;;
55063;SDS011;40963;52.168;21.296;2023-06-22T07:35:21;44.20;;;22.20;;
55063;SDS011;40963;52.168;21.296;2023-06-22T07:37:47;28.80;;;20.38;;
55063;SDS011;40963;52.168;21.296;2023-06-22T07:40:13;29.13;;;21.10;;
55063;SDS011;40963;52.168;21.296;2023-06-22T07:42:39;25.95;;;18.83;;
55063;SDS011;40963;52.168;21.296;2023-06-22T07:45:04;26.23;;;18.42;;
55063;SDS011;40963;52.168;21.296;2023-06-22T07:47:32;22.77;;;16.83;;
55063;SDS011;40963;52.168;21.296;2023-06-22T07:50:00;20.52;;;16.27;;
55063;SDS011;40963;52.168;21.296;2023-06-22T07:52:26;23.17;;;16.67;;
55063;SDS011;40963;52.168;21.296;2023-06-22T07:54:53;24.75;;;16.17;;
55063;SDS011;40963;52.168;21.296;2023-06-22T07:57:19;21.58;;;15.35;;
55063;SDS011;40963;52.168;21.296;2023-06-22T07:59:45;19.67;;;15.40;;
55063;SDS011;40963;52.168;21.296;2023-06-22T08:02:10;18.52;;;14.55;;
55063;SDS011;40963;52.168;21.296;2023-06-22T08:04:36;18.33;;;14.38;;
55063;SDS011;40963;52.168;21.296;2023-06-22T08:07:02;17.27;;;13.30;;
55063;SDS011;40963;52.168;21.296;2023-06-22T08:09:29;21.45;;;13.52;;
55063;SDS011;40963;52.168;21.296;2023-06-22T08:11:56;20.23;;;13.13;;
55063;SDS011;40963;52.168;21.296;2023-06-22T08:14:23;16.02;;;12.32;;
55063;SDS011;40963;52.168;21.296;2023-06-22T08:16:50;15.02;;;12.18;;
55063;SDS011;40963;52.168;21.296;2023-06-22T08:19:16;12.48;;;10.25;;
55063;SDS011;40963;52.168;21.296;2023-06-22T08:21:42;16.20;;;10.82;;
55063;SDS011;40963;52.168;21.296;2023-06-22T08:24:07;13.93;;;10.45;;
55063;SDS011;40963;52.168;21.296;2023-06-22T08:26:33;15.35;;;10.63;;
55063;SDS011;40963;52.168;21.296;2023-06-22T08:29:02;15.23;;;10.50;;
55063;SDS011;40963;52.168;21.296;2023-06-22T08:31:28;15.88;;;9.80;;
55063;SDS011;40963;52.168;21.296;2023-06-22T08:33:54;13.30;;;10.13;;
55063;SDS011;40963;52.168;21.296;2023-06-22T08:36:19;17.60;;;10.77;;
55063;SDS011;40963;52.168;21.296;2023-06-22T08:38:45;12.88;;;9.90;;
55063;SDS011;40963;52.168;21.296;2023-06-22T08:41:16;8.68;;;7.78;;
55063;SDS011;40963;52.168;21.296;2023-06-22T08:43:42;10.68;;;8.27;;
55063;SDS011;40963;52.168;21.296;2023-06-22T08:46:09;10.18;;;8.10;;
55063;SDS011;40963;52.168;21.296;2023-06-22T08:48:35;9.48;;;7.90;;
55063;SDS011;40963;52.168;21.296;2023-06-22T08:51:01;8.13;;;7.32;;
55063;SDS011;40963;52.168;21.296;2023-06-22T08:53:27;10.80;;;7.72;;
55063;SDS011;40963;52.168;21.296;2023-06-22T08:55:53;9.80;;;7.57;;
55063;SDS011;40963;52.168;21.296;2023-06-22T08:58:18;9.02;;;7.90;;
55063;SDS011;40963;52.168;21.296;2023-06-22T09:00:45;9.32;;;6.97;;
55063;SDS011;40963;52.168;21.296;2023-06-22T09:03:10;9.52;;;6.30;;
55063;SDS011;40963;52.168;21.296;2023-06-22T09:05:37;7.43;;;5.40;;
55063;SDS011;40963;52.168;21.296;2023-06-22T09:08:03;5.75;;;4.68;;
55063;SDS011;40963;52.168;21.296;2023-06-22T09:10:28;7.10;;;5.30;;
55063;SDS011;40963;52.168;21.296;2023-06-22T09:12:54;5.93;;;5.13;;
55063;SDS011;40963;52.168;21.296;2023-06-22T09:15:20;7.82;;;5.47;;
55063;SDS011;40963;52.168;21.296;2023-06-22T09:17:46;6.80;;;5.05;;
55063;SDS011;40963;52.168;21.296;2023-06-22T09:20:11;5.22;;;4.70;;
55063;SDS011;40963;52.168;21.296;2023-06-22T09:22:37;11.35;;;4.70;;
55063;SDS011;40963;52.168;21.296;2023-06-22T09:25:04;6.78;;;4.65;;
55063;SDS011;40963;52.168;21.296;2023-06-22T09:27:30;7.15;;;4.93;;
55063;SDS011;40963;52.168;21.296;2023-06-22T09:29:55;8.20;;;4.78;;
55063;SDS011;40963;52.168;21.296;2023-06-22T09:32:23;8.10;;;4.30;;
55063;SDS011;40963;52.168;21.296;2023-06-22T09:34:49;5.82;;;4.50;;
55063;SDS011;40963;52.168;21.296;2023-06-22T09:37:15;7.80;;;4.35;;
55063;SDS011;40963;52.168;21.296;2023-06-22T09:39:41;7.03;;;4.25;;
55063;SDS011;40963;52.168;21.296;2023-06-22T09:42:06;5.32;;;4.32;;
55063;SDS011;40963;52.168;21.296;2023-06-22T09:44:32;4.80;;;4.20;;
55063;SDS011;40963;52.168;21.296;2023-06-22T09:46:58;4.43;;;3.95;;
55063;SDS011;40963;52.168;21.296;2023-06-22T09:49:24;5.65;;;3.97;;
55063;SDS011;40963;52.168;21.296;2023-06-22T09:51:50;6.18;;;4.03;;
55063;SDS011;40963;52.168;21.296;2023-06-22T09:54:17;5.90;;;3.70;;
55063;SDS011;40963;52.168;21.296;2023-06-22T09:56:43;4.55;;;4.10;;
55063;SDS011;40963;52.168;21.296;2023-06-22T09:59:08;5.88;;;3.97;;
55063;SDS011;40963;52.168;21.296;2023-06-22T10:01:34;4.20;;;3.80;;
55063;SDS011;40963;52.168;21.296;2023-06-22T10:04:00;3.63;;;3.13;;
55063;SDS011;40963;52.168;21.296;2023-06-22T10:06:27;3.22;;;3.00;;
55063;SDS011;40963;52.168;21.296;2023-06-22T10:08:52;5.63;;;3.83;;
55063;SDS011;40963;52.168;21.296;2023-06-22T10:11:18;5.18;;;3.13;;
55063;SDS011;40963;52.168;21.296;2023-06-22T10:13:44;6.88;;;3.33;;
55063;SDS011;40963;52.168;21.296;2023-06-22T10:16:09;6.88;;;3.17;;
55063;SDS011;40963;52.168;21.296;2023-06-22T10:18:35;2.70;;;2.47;;
55063;SDS011;40963;52.168;21.296;2023-06-22T10:21:01;5.85;;;2.90;;
55063;SDS011;40963;52.168;21.296;2023-06-22T10:23:27;3.80;;;2.80;;
55063;SDS011;40963;52.168;21.296;2023-06-22T10:25:52;5.90;;;2.67;;
55063;SDS011;40963;52.168;21.296;2023-06-22T10:28:18;6.72;;;2.85;;
55063;SDS011;40963;52.168;21.296;2023-06-22T10:30:43;12.05;;;2.97;;
55063;SDS011;40963;52.168;21.296;2023-06-22T10:33:09;3.35;;;3.00;;
55063;SDS011;40963;52.168;21.296;2023-06-22T10:35:36;5.07;;;3.08;;
55063;SDS011;40963;52.168;21.296;2023-06-22T10:38:03;2.85;;;2.63;;
55063;SDS011;40963;52.168;21.296;2023-06-22T10:40:28;5.78;;;3.00;;
55063;SDS011;40963;52.168;21.296;2023-06-22T10:42:54;3.10;;;2.80;;
55063;SDS011;40963;52.168;21.296;2023-06-22T10:45:20;8.65;;;2.97;;
55063;SDS011;40963;52.168;21.296;2023-06-22T10:47:45;4.30;;;2.80;;
55063;SDS011;40963;52.168;21.296;2023-06-22T10:50:11;4.30;;;2.80;;
55063;SDS011;40963;52.168;21.296;2023-06-22T10:52:37;8.75;;;2.95;;
55063;SDS011;40963;52.168;21.296;2023-06-22T10:55:03;3.72;;;2.92;;
55063;SDS011;40963;52.168;21.296;2023-06-22T10:57:29;5.60;;;2.85;;
55063;SDS011;40963;52.168;21.296;2023-06-22T10:59:55;5.13;;;3.38;;
55063;SDS011;40963;52.168;21.296;2023-06-22T11:02:20;4.82;;;2.80;;
55063;SDS011;40963;52.168;21.296;2023-06-22T11:04:46;3.92;;;2.72;;
55063;SDS011;40963;52.168;21.296;2023-06-22T11:07:12;3.90;;;2.92;;
55063;SDS011;40963;52.168;21.296;2023-06-22T11:09:38;4.05;;;3.15;;
55063;SDS011;40963;52.168;21.296;2023-06-22T11:12:04;7.15;;;3.00;;
55063;SDS011;40963;52.168;21.296;2023-06-22T11:14:31;4.32;;;2.90;;
55063;SDS011;40963;52.168;21.296;2023-06-22T11:16:58;3.67;;;2.75;;
55063;SDS011;40963;52.168;21.296;2023-06-22T11:19:24;4.03;;;3.15;;
55063;SDS011;40963;52.168;21.296;2023-06-22T11:21:49;3.83;;;3.00;;
55063;SDS011;40963;52.168;21.296;2023-06-22T11:24:15;3.90;;;3.50;;
55063;SDS011;40963;52.168;21.296;2023-06-22T11:26:42;5.78;;;3.03;;
55063;SDS011;40963;52.168;21.296;2023-06-22T11:29:07;3.25;;;2.95;;
55063;SDS011;40963;52.168;21.296;2023-06-22T11:31:34;2.88;;;2.63;;
55063;SDS011;40963;52.168;21.296;2023-06-22T11:34:00;4.43;;;2.80;;
55063;SDS011;40963;52.168;21.296;2023-06-22T11:36:25;4.70;;;3.40;;
55063;SDS011;40963;52.168;21.296;2023-06-22T11:38:52;3.97;;;3.38;;
55063;SDS011;40963;52.168;21.296;2023-06-22T11:41:17;6.63;;;3.30;;
55063;SDS011;40963;52.168;21.296;2023-06-22T11:43:43;4.90;;;3.53;;
55063;SDS011;40963;52.168;21.296;2023-06-22T11:46:09;6.10;;;3.50;;
55063;SDS011;40963;52.168;21.296;2023-06-22T11:48:35;4.32;;;3.58;;
55063;SDS011;40963;52.168;21.296;2023-06-22T11:51:01;3.70;;;3.33;;
55063;SDS011;40963;52.168;21.296;2023-06-22T11:53:28;7.88;;;3.80;;
55063;SDS011;40963;52.168;21.296;2023-06-22T11:55:54;4.75;;;3.50;;
55063;SDS011;40963;52.168;21.296;2023-06-22T11:58:20;4.88;;;3.50;;
55063;SDS011;40963;52.168;21.296;2023-06-22T12:00:45;4.47;;;3.30;;
55063;SDS011;40963;52.168;21.296;2023-06-22T12:03:11;4.28;;;3.15;;
55063;SDS011;40963;52.168;21.296;2023-06-22T12:05:37;6.20;;;3.17;;
55063;SDS011;40963;52.168;21.296;2023-06-22T12:08:03;6.72;;;2.60;;
55063;SDS011;40963;52.168;21.296;2023-06-22T12:10:29;2.95;;;2.75;;
55063;SDS011;40963;52.168;21.296;2023-06-22T12:12:55;4.13;;;2.90;;
55063;SDS011;40963;52.168;21.296;2023-06-22T12:15:22;4.53;;;2.72;;
55063;SDS011;40963;52.168;21.296;2023-06-22T12:17:48;8.75;;;3.00;;
55063;SDS011;40963;52.168;21.296;2023-06-22T12:20:14;5.90;;;3.10;;
55063;SDS011;40963;52.168;21.296;2023-06-22T12:22:40;6.95;;;3.58;;
55063;SDS011;40963;52.168;21.296;2023-06-22T12:25:06;9.20;;;3.60;;
55063;SDS011;40963;52.168;21.296;2023-06-22T12:27:32;6.88;;;3.63;;
55063;SDS011;40963;52.168;21.296;2023-06-22T12:29:58;5.05;;;3.22;;
55063;SDS011;40963;52.168;21.296;2023-06-22T12:32:24;4.47;;;2.80;;
55063;SDS011;40963;52.168;21.296;2023-06-22T12:34:50;4.07;;;2.97;;
55063;SDS011;40963;52.168;21.296;2023-06-22T12:37:16;4.60;;;3.08;;
55063;SDS011;40963;52.168;21.296;2023-06-22T12:39:42;3.85;;;3.08;;
55063;SDS011;40963;52.168;21.296;2023-06-22T12:42:08;3.90;;;3.00;;
55063;SDS011;40963;52.168;21.296;2023-06-22T12:44:34;5.75;;;2.97;;
55063;SDS011;40963;52.168;21.296;2023-06-22T12:47:00;7.63;;;3.40;;
55063;SDS011;40963;52.168;21.296;2023-06-22T12:49:26;10.98;;;3.60;;
55063;SDS011;40963;52.168;21.296;2023-06-22T12:51:52;9.45;;;3.47;;
55063;SDS011;40963;52.168;21.296;2023-06-22T12:54:18;5.35;;;3.90;;
55063;SDS011;40963;52.168;21.296;2023-06-22T12:56:43;3.42;;;3.10;;
55063;SDS011;40963;52.168;21.296;2023-06-22T12:59:10;3.90;;;2.92;;
55063;SDS011;40963;52.168;21.296;2023-06-22T13:01:36;10.02;;;3.58;;
55063;SDS011;40963;52.168;21.296;2023-06-22T13:04:02;3.80;;;3.50;;
55063;SDS011;40963;52.168;21.296;2023-06-22T13:06:28;5.47;;;3.40;;
55063;SDS011;40963;52.168;21.296;2023-06-22T13:08:54;4.55;;;3.40;;
55063;SDS011;40963;52.168;21.296;2023-06-22T13:11:19;5.18;;;3.20;;
55063;SDS011;40963;52.168;21.296;2023-06-22T13:13:45;7.50;;;4.10;;
55063;SDS011;40963;52.168;21.296;2023-06-22T13:16:11;4.90;;;3.90;;
55063;SDS011;40963;52.168;21.296;2023-06-22T13:18:37;9.38;;;3.30;;
55063;SDS011;40963;52.168;21.296;2023-06-22T13:21:03;3.65;;;3.35;;
55063;SDS011;40963;52.168;21.296;2023-06-22T13:23:29;4.60;;;3.97;;
55063;SDS011;40963;52.168;21.296;2023-06-22T13:25:55;7.65;;;3.47;;
55063;SDS011;40963;52.168;21.296;2023-06-22T13:28:21;8.15;;;3.30;;
55063;SDS011;40963;52.168;21.296;2023-06-22T13:30:46;7.18;;;3.42;;
55063;SDS011;40963;52.168;21.296;2023-06-22T13:33:13;7.63;;;3.42;;
55063;SDS011;40963;52.168;21.296;2023-06-22T13:35:39;6.43;;;3.67;;
55063;SDS011;40963;52.168;21.296;2023-06-22T13:38:07;5.18;;;3.30;;
55063;SDS011;40963;52.168;21.296;2023-06-22T13:40:34;3.88;;;3.50;;
55063;SDS011;40963;52.168;21.296;2023-06-22T13:43:00;4.43;;;3.63;;
55063;SDS011;40963;52.168;21.296;2023-06-22T13:45:25;4.13;;;3.13;;
55063;SDS011;40963;52.168;21.296;2023-06-22T13:47:51;3.70;;;3.20;;
55063;SDS011;40963;52.168;21.296;2023-06-22T13:50:17;4.57;;;3.70;;
55063;SDS011;40963;52.168;21.296;2023-06-22T13:52:43;6.38;;;3.25;;
55063;SDS011;40963;52.168;21.296;2023-06-22T13:55:09;6.13;;;3.38;;
55063;SDS011;40963;52.168;21.296;2023-06-22T13:57:35;4.00;;;3.53;;
55063;SDS011;40963;52.168;21.296;2023-06-22T14:00:01;4.82;;;3.20;;
55063;SDS011;40963;52.168;21.296;2023-06-22T14:02:29;4.60;;;3.40;;
55063;SDS011;40963;52.168;21.296;2023-06-22T14:04:55;4.90;;;3.47;;
55063;SDS011;40963;52.168;21.296;2023-06-22T14:07:21;4.40;;;3.70;;
55063;SDS011;40963;52.168;21.296;2023-06-22T14:09:46;4.45;;;3.45;;
55063;SDS011;40963;52.168;21.296;2023-06-22T14:12:12;3.78;;;3.47;;
55063;SDS011;40963;52.168;21.296;2023-06-22T14:14:38;5.28;;;3.78;;